createdAt,value
2023-05-17T00:00:11.862Z,5.6
2023-05-17T00:03:12.335Z,5.6
2023-05-17T00:06:12.381Z,5.7
2023-05-17T00:09:11.848Z,5.7
2023-05-17T00:12:11.843Z,5.7
2023-05-17T00:15:11.689Z,5.7
2023-05-17T00:18:12.540Z,5.7
2023-05-17T00:21:11.705Z,5.7
2023-05-17T00:24:11.788Z,5.9
2023-05-17T00:27:11.759Z,5.9
2023-05-17T00:30:11.767Z,5.9
2023-05-17T00:33:12.232Z,5.9
2023-05-17T00:36:11.824Z,5.9
2023-05-17T00:39:11.856Z,5.9
2023-05-17T00:42:11.888Z,5.7
2023-05-17T00:45:12.019Z,5.7
2023-05-17T00:48:12.669Z,5.9
2023-05-17T00:51:11.772Z,5.7
2023-05-17T00:54:11.816Z,5.7
2023-05-17T00:57:11.760Z,5.7
2023-05-17T01:00:11.921Z,5.7
2023-05-17T01:03:12.521Z,5.7
2023-05-17T01:06:11.844Z,5.7
2023-05-17T01:09:11.862Z,5.7
2023-05-17T01:12:11.677Z,5.9
2023-05-17T01:15:11.853Z,6
2023-05-17T01:18:12.826Z,6
2023-05-17T01:21:11.778Z,6.1
2023-05-17T01:24:11.807Z,6.1
2023-05-17T01:27:12.204Z,6.1
2023-05-17T01:30:11.775Z,6.2
2023-05-17T01:33:12.452Z,6.4
2023-05-17T01:36:11.854Z,6.5
2023-05-17T01:39:11.827Z,6.5
2023-05-17T01:42:11.784Z,6.4
2023-05-17T01:45:11.782Z,6.4
2023-05-17T01:48:12.568Z,6.2
2023-05-17T01:51:11.858Z,6.2
2023-05-17T01:54:11.877Z,6.1
2023-05-17T01:57:11.787Z,6
2023-05-17T02:00:11.917Z,6
2023-05-17T02:03:11.964Z,6
2023-05-17T02:06:11.797Z,6
2023-05-17T02:09:12.037Z,6.1
2023-05-17T02:12:11.939Z,6.1
2023-05-17T02:15:11.722Z,6.1
2023-05-17T02:18:12.469Z,6.1
2023-05-17T02:21:11.803Z,6.1
2023-05-17T02:24:11.822Z,6
2023-05-17T02:27:11.806Z,6
2023-05-17T02:30:11.957Z,6
2023-05-17T02:33:12.652Z,6
2023-05-17T02:36:11.797Z,5.9
2023-05-17T02:39:11.762Z,5.9
2023-05-17T02:42:11.752Z,5.9
2023-05-17T02:45:11.806Z,5.9
2023-05-17T02:48:12.152Z,5.9
2023-05-17T02:51:11.920Z,5.9
2023-05-17T02:54:11.849Z,5.9
2023-05-17T02:57:11.851Z,5.9
2023-05-17T03:00:12.272Z,5.9
2023-05-17T03:03:12.412Z,5.9
2023-05-17T03:06:11.898Z,6
2023-05-17T03:09:11.846Z,6.1
2023-05-17T03:12:11.720Z,6.2
2023-05-17T03:15:11.802Z,6.5
2023-05-17T03:18:12.507Z,6.7
2023-05-17T03:21:11.808Z,6.9
2023-05-17T03:24:11.885Z,7.1
2023-05-17T03:27:11.921Z,7.2
2023-05-17T03:30:12.077Z,7.4
2023-05-17T03:33:12.438Z,7.4
2023-05-17T03:36:11.856Z,7.4
2023-05-17T03:39:12.032Z,7.2
2023-05-17T03:42:12.089Z,7.2
2023-05-17T03:45:11.864Z,7.4
2023-05-17T03:48:12.251Z,7.5
2023-05-17T03:51:11.879Z,7.9
2023-05-17T03:54:12.059Z,8
2023-05-17T03:57:11.951Z,8.3
2023-05-17T04:00:12.479Z,8.5
2023-05-17T04:03:12.238Z,8.6
2023-05-17T04:06:12.198Z,8.8
2023-05-17T04:09:11.903Z,8.9
2023-05-17T04:12:12.011Z,8.9
2023-05-17T04:15:11.819Z,9.3
2023-05-17T04:18:12.954Z,9.6
2023-05-17T04:21:11.984Z,10
2023-05-17T04:24:12.304Z,10.5
2023-05-17T04:27:14.581Z,10.9
2023-05-17T04:30:12.500Z,11.1
2023-05-17T04:33:15.778Z,11.4
2023-05-17T04:36:12.043Z,11.8
2023-05-17T04:39:11.923Z,12.6
2023-05-17T04:42:11.968Z,12.8
2023-05-17T04:45:14.157Z,13.3
2023-05-17T04:48:12.620Z,15.5
2023-05-17T04:51:12.159Z,16.5
2023-05-17T04:54:11.949Z,15.4
2023-05-17T04:57:11.938Z,14.5
2023-05-17T05:00:12.388Z,14
2023-05-17T05:03:12.691Z,13.6
2023-05-17T05:06:11.938Z,13.6
2023-05-17T05:09:12.064Z,15
2023-05-17T05:12:11.921Z,15.9
2023-05-17T05:15:12.379Z,16.3
2023-05-17T05:18:12.785Z,16.3
2023-05-17T05:21:12.020Z,18.4
2023-05-17T05:24:11.986Z,19.3
2023-05-17T05:27:15.491Z,21
2023-05-17T05:30:12.675Z,21.9
2023-05-17T05:33:13.088Z,23.4
2023-05-17T05:36:11.952Z,22
2023-05-17T05:39:13.781Z,21.9
2023-05-17T05:42:12.189Z,20.9
2023-05-17T05:45:11.991Z,20.5
2023-05-17T05:48:12.749Z,19.6
2023-05-17T05:51:11.822Z,19.6
2023-05-17T05:54:12.462Z,20.1
2023-05-17T05:57:11.988Z,21.4
2023-05-17T06:00:12.207Z,22.4
2023-05-17T06:03:12.232Z,23.9
2023-05-17T06:06:12.544Z,24.7
2023-05-17T06:09:11.944Z,24.4
2023-05-17T06:12:12.153Z,23.5
2023-05-17T06:15:12.023Z,24
2023-05-17T06:18:12.625Z,23.7
2023-05-17T06:21:11.868Z,22.2
2023-05-17T06:24:15.952Z,21.9
2023-05-17T06:27:11.975Z,24.7
2023-05-17T06:30:15.204Z,23.7
2023-05-17T06:33:12.906Z,25
2023-05-17T06:39:11.928Z,21.8
2023-05-17T06:42:11.997Z,20.3
2023-05-17T06:45:12.022Z,19.5
2023-05-17T06:48:13.064Z,18.8
2023-05-17T06:51:11.919Z,19.5
2023-05-17T06:54:12.015Z,20.9
2023-05-17T06:57:11.976Z,20
2023-05-17T07:00:12.635Z,21
2023-05-17T07:03:12.869Z,20.4
2023-05-17T07:06:12.098Z,20.3
2023-05-17T07:09:11.775Z,19.4
2023-05-17T07:12:12.031Z,20.4
2023-05-17T07:15:12.152Z,21.5
2023-05-17T07:18:12.620Z,24.5
2023-05-17T07:21:12.027Z,24.6
2023-05-17T07:24:11.999Z,23.4
2023-05-17T07:27:11.996Z,22.2
2023-05-17T07:30:12.072Z,21.6
2023-05-17T07:33:12.376Z,22.2
2023-05-17T07:36:12.045Z,21.2
2023-05-17T07:39:12.004Z,20.1
2023-05-17T07:42:15.440Z,19.5
2023-05-17T07:45:12.022Z,19.5
2023-05-17T07:48:12.612Z,20.9
2023-05-17T07:51:11.953Z,22.4
2023-05-17T07:54:12.058Z,21.9
2023-05-17T07:57:11.924Z,21.1
2023-05-17T08:00:12.044Z,21
2023-05-17T08:03:12.190Z,26.8
2023-05-17T08:06:12.267Z,25.6
2023-05-17T08:09:11.787Z,24.1
2023-05-17T08:12:13.067Z,23
2023-05-17T08:15:12.199Z,23.1
2023-05-17T08:18:16.357Z,28.6
2023-05-17T08:21:11.810Z,32
2023-05-17T08:24:15.164Z,31.5
2023-05-17T08:27:11.890Z,29.5
2023-05-17T08:30:32.713Z,28
2023-05-17T08:33:12.586Z,32.4
2023-05-17T08:36:11.863Z,35.7
2023-05-17T08:39:11.711Z,33.9
2023-05-17T08:42:11.965Z,32.1
2023-05-17T08:45:11.827Z,29.4
2023-05-17T08:48:12.584Z,27.2
2023-05-17T08:51:11.772Z,25.6
2023-05-17T08:54:11.889Z,27.4
2023-05-17T08:57:11.802Z,31.8
2023-05-17T09:00:12.216Z,32.7
2023-05-17T09:03:12.577Z,36
2023-05-17T09:06:12.766Z,34.9
2023-05-17T09:09:12.064Z,32.6
2023-05-17T09:12:11.934Z,30.3
2023-05-17T09:15:11.981Z,28.9
2023-05-17T09:18:12.748Z,27.9
2023-05-17T09:21:12.083Z,26.8
2023-05-17T09:24:19.200Z,26
2023-05-17T09:27:11.789Z,25.4
2023-05-17T09:30:12.038Z,25.5
2023-05-17T09:33:12.460Z,26
2023-05-17T09:36:11.858Z,26.6
2023-05-17T09:39:12.222Z,29.9
2023-05-17T09:42:11.821Z,30.1
2023-05-17T09:45:11.898Z,33.9
2023-05-17T09:48:12.511Z,31.6
2023-05-17T09:51:11.921Z,29.4
2023-05-17T09:54:12.004Z,27.2
2023-05-17T09:57:11.857Z,26
2023-05-17T10:00:12.134Z,25.9
2023-05-17T10:03:12.590Z,26.5
2023-05-17T10:06:16.552Z,28
2023-05-17T10:09:11.933Z,28.3
2023-05-17T10:12:11.820Z,28.7
2023-05-17T10:15:12.603Z,30.1
2023-05-17T10:18:12.634Z,35.9
2023-05-17T10:21:12.079Z,33.7
2023-05-17T10:24:11.916Z,32.6
2023-05-17T10:27:11.884Z,33
2023-05-17T10:30:12.422Z,33.4
2023-05-17T10:33:12.739Z,31.4
2023-05-17T10:36:11.980Z,35.7
2023-05-17T10:39:12.025Z,38.1
2023-05-17T10:42:26.360Z,38.2
2023-05-17T10:45:11.921Z,34.4
2023-05-17T10:48:13.056Z,35.1
2023-05-17T10:51:13.120Z,36.5
2023-05-17T10:54:12.089Z,34.5
2023-05-17T10:57:14.370Z,33.6
2023-05-17T11:00:12.055Z,33.2
2023-05-17T11:03:12.201Z,33.5
2023-05-17T11:06:28.338Z,33.4
2023-05-17T11:09:12.016Z,31
2023-05-17T11:12:12.158Z,32
2023-05-17T11:15:14.759Z,35.5
2023-05-17T11:18:36.460Z,38.7
2023-05-17T11:21:13.179Z,40.2
2023-05-17T11:24:12.107Z,39.7
2023-05-17T11:27:12.144Z,38.6
2023-05-17T11:30:12.067Z,40.5
2023-05-17T11:33:37.514Z,41.1
2023-05-17T11:36:11.993Z,40.8
2023-05-17T11:39:19.503Z,42.2
2023-05-17T11:42:12.212Z,41.7
2023-05-17T11:45:12.230Z,38.4
2023-05-17T11:48:12.846Z,38.4
2023-05-17T11:51:13.613Z,36.9
2023-05-17T11:54:11.918Z,36.6
2023-05-17T11:57:11.913Z,35.2
2023-05-17T12:00:12.136Z,38.1
2023-05-17T12:03:12.289Z,41.1
2023-05-17T12:06:12.462Z,38.4
2023-05-17T12:09:12.035Z,36.2
2023-05-17T12:12:11.924Z,38.4
2023-05-17T12:15:11.866Z,40.2
2023-05-17T12:18:12.495Z,42
2023-05-17T12:21:11.776Z,37.9
2023-05-17T12:24:12.064Z,34.7
2023-05-17T12:27:11.939Z,35.4
2023-05-17T12:30:12.050Z,32.4
2023-05-17T12:33:12.965Z,35.1
2023-05-17T12:36:11.883Z,33.6
2023-05-17T12:39:11.888Z,31.4
2023-05-17T12:42:11.867Z,30
2023-05-17T12:45:11.944Z,35.4
2023-05-17T12:48:12.387Z,35.2
2023-05-17T12:51:14.000Z,33.5
2023-05-17T12:54:11.877Z,35
2023-05-17T12:57:14.435Z,39.7
2023-05-17T13:00:12.192Z,43
2023-05-17T13:03:12.496Z,44.5
2023-05-17T13:06:12.052Z,44.9
2023-05-17T13:09:12.064Z,45
2023-05-17T13:12:12.027Z,43.9
2023-05-17T13:15:11.954Z,38.9
2023-05-17T13:18:12.826Z,35.4
2023-05-17T13:21:11.945Z,34.9
2023-05-17T13:24:12.108Z,38
2023-05-17T13:27:12.038Z,39.1
2023-05-17T13:30:12.088Z,37.5
2023-05-17T13:33:12.884Z,33.5
2023-05-17T13:36:11.914Z,35.9
2023-05-17T13:39:11.962Z,32.4
2023-05-17T13:42:12.176Z,33.1
2023-05-17T13:45:11.921Z,35.1
2023-05-17T13:48:12.701Z,35.1
2023-05-17T13:51:11.952Z,34.9
2023-05-17T13:54:15.904Z,34.2
2023-05-17T13:57:12.242Z,32.6
2023-05-17T14:00:12.115Z,33.6
2023-05-17T14:03:12.616Z,37
2023-05-17T14:06:12.310Z,35
2023-05-17T14:09:12.003Z,36.2
2023-05-17T14:12:12.445Z,38.6
2023-05-17T14:15:11.962Z,34.2
2023-05-17T14:18:12.512Z,37.4
2023-05-17T14:21:12.322Z,38.7
2023-05-17T14:24:12.514Z,39.9
2023-05-17T14:27:11.970Z,39.6
2023-05-17T14:30:13.832Z,35.5
2023-05-17T14:33:12.476Z,35.1
2023-05-17T14:36:14.303Z,37.5
2023-05-17T14:39:11.804Z,38.6
2023-05-17T14:42:11.930Z,35.4
2023-05-17T14:45:11.880Z,34.6
2023-05-17T14:48:12.397Z,37.5
2023-05-17T14:51:11.775Z,38.4
2023-05-17T14:54:13.944Z,34.9
2023-05-17T14:57:11.777Z,32.4
2023-05-17T15:00:12.147Z,31.8
2023-05-17T15:03:12.676Z,34.4
2023-05-17T15:06:20.524Z,36.9
2023-05-17T15:09:11.830Z,37.5
2023-05-17T15:12:14.163Z,36.1
2023-05-17T15:15:11.853Z,36.1
2023-05-17T15:18:12.160Z,32.6
2023-05-17T15:21:11.781Z,32
2023-05-17T15:24:13.617Z,29.1
2023-05-17T15:27:12.265Z,31.5
2023-05-17T15:30:14.740Z,29.9
2023-05-17T15:33:12.582Z,32
2023-05-17T15:36:13.445Z,28.5
2023-05-17T15:39:11.782Z,32.1
2023-05-17T15:42:11.760Z,32.6
2023-05-17T15:45:11.761Z,30
2023-05-17T15:48:11.994Z,29.4
2023-05-17T15:51:11.681Z,32.2
2023-05-17T15:54:11.744Z,31
2023-05-17T15:57:11.960Z,29
2023-05-17T16:00:11.906Z,32
2023-05-17T16:03:12.087Z,32.6
2023-05-17T16:06:12.196Z,33.9
2023-05-17T16:09:11.810Z,34.5
2023-05-17T16:12:11.810Z,34
2023-05-17T16:15:11.718Z,31.9
2023-05-17T16:18:28.265Z,32.5
2023-05-17T16:21:11.725Z,33
2023-05-17T16:24:13.624Z,33.4
2023-05-17T16:27:14.934Z,33.5
2023-05-17T16:30:11.770Z,33.6
2023-05-17T16:33:15.346Z,33.4
2023-05-17T16:36:11.698Z,33
2023-05-17T16:39:13.787Z,30.8
2023-05-17T16:42:11.868Z,28
2023-05-17T16:45:14.314Z,25.1
2023-05-17T16:48:12.126Z,26.1
2023-05-17T16:51:11.806Z,28
2023-05-17T16:54:11.719Z,28
2023-05-17T16:57:14.798Z,29
2023-05-17T17:00:12.306Z,29.4
2023-05-17T17:03:16.648Z,28
2023-05-17T17:06:11.797Z,28.5
2023-05-17T17:09:14.574Z,28.4
2023-05-17T17:12:33.850Z,27.9
2023-05-17T17:15:14.440Z,26.6
2023-05-17T17:18:12.082Z,24.3
2023-05-17T17:21:14.573Z,21.5
2023-05-17T17:24:12.106Z,19.9
2023-05-17T17:27:11.765Z,18.8
2023-05-17T17:30:11.751Z,17.9
2023-05-17T17:33:12.795Z,17.2
2023-05-17T17:36:11.843Z,16.8
2023-05-17T17:39:11.949Z,16.4
2023-05-17T17:42:12.011Z,16
2023-05-17T17:45:11.752Z,15.6
2023-05-17T17:48:12.352Z,15.4
2023-05-17T17:51:11.707Z,15
2023-05-17T17:54:11.848Z,14.6
2023-05-17T17:57:11.779Z,14.3
2023-05-17T18:00:14.415Z,13.9
2023-05-17T18:03:12.616Z,13.6
2023-05-17T18:06:11.790Z,13.4
2023-05-17T18:09:11.729Z,13
2023-05-17T18:12:11.718Z,12.8
2023-05-17T18:15:11.703Z,12.5
2023-05-17T18:18:12.176Z,12.4
2023-05-17T18:21:11.849Z,12.1
2023-05-17T18:24:11.812Z,12
2023-05-17T18:27:11.947Z,11.9
2023-05-17T18:30:11.756Z,11.8
2023-05-17T18:33:12.015Z,11.5
2023-05-17T18:36:11.816Z,11.4
2023-05-17T18:39:11.753Z,11.3
2023-05-17T18:42:11.747Z,11
2023-05-17T18:45:11.842Z,10.8
2023-05-17T18:48:12.271Z,10.6
2023-05-17T18:51:11.782Z,10.4
2023-05-17T18:54:11.770Z,10.3
2023-05-17T18:57:11.847Z,10
2023-05-17T19:00:12.012Z,9.8
2023-05-17T19:03:12.346Z,9.6
2023-05-17T19:06:11.871Z,9.4
2023-05-17T19:09:11.796Z,9.1
2023-05-17T19:12:11.651Z,9
2023-05-17T19:15:11.762Z,8.8
2023-05-17T19:18:12.081Z,8.6
2023-05-17T19:21:11.722Z,8.4
2023-05-17T19:24:11.705Z,8.3
2023-05-17T19:27:11.859Z,8.3
2023-05-17T19:30:11.823Z,8.1
2023-05-17T19:33:12.222Z,8
2023-05-17T19:36:11.725Z,8
2023-05-17T19:39:11.725Z,8
2023-05-17T19:42:11.681Z,7.9
2023-05-17T19:45:11.793Z,7.7
2023-05-17T19:48:12.157Z,7.7
2023-05-17T19:51:11.719Z,7.6
2023-05-17T19:54:11.811Z,7.5
2023-05-17T19:57:11.731Z,7.4
2023-05-17T20:00:11.750Z,7.4
2023-05-17T20:03:12.511Z,7.2
2023-05-17T20:06:11.746Z,7.1
2023-05-17T20:09:11.759Z,7
2023-05-17T20:12:11.666Z,7
2023-05-17T20:15:11.680Z,6.9
2023-05-17T20:18:12.200Z,6.9
2023-05-17T20:21:11.796Z,6.7
2023-05-17T20:24:11.919Z,6.6
2023-05-17T20:27:11.755Z,6.6
2023-05-17T20:30:11.769Z,6.6
2023-05-17T20:33:15.167Z,6.6
2023-05-17T20:36:11.759Z,6.6
2023-05-17T20:39:11.681Z,6.5
2023-05-17T20:42:11.784Z,6.4
2023-05-17T20:45:14.686Z,6.4
2023-05-17T20:48:12.263Z,6.2
2023-05-17T20:51:11.753Z,6.1
2023-05-17T20:54:11.697Z,6
2023-05-17T20:57:11.761Z,5.9
2023-05-17T21:00:12.038Z,5.7
2023-05-17T21:03:12.310Z,5.6
2023-05-17T21:06:11.834Z,5.6
2023-05-17T21:09:11.707Z,5.5
2023-05-17T21:12:11.750Z,5.4
2023-05-17T21:15:28.228Z,5.2
2023-05-17T21:18:13.431Z,5.1
2023-05-17T21:21:11.882Z,5.1
2023-05-17T21:24:11.903Z,5.1
2023-05-17T21:27:11.705Z,5.1
2023-05-17T21:30:11.769Z,5
2023-05-17T21:33:12.378Z,4.9
2023-05-17T21:36:11.645Z,4.9
2023-05-17T21:39:11.761Z,4.7
2023-05-17T21:42:11.813Z,4.6
2023-05-17T21:45:11.799Z,4.6
2023-05-17T21:48:12.199Z,4.6
2023-05-17T21:51:11.665Z,4.6
2023-05-17T21:54:11.710Z,4.6
2023-05-17T21:57:11.726Z,4.6
2023-05-17T22:00:12.297Z,4.6
2023-05-17T22:03:12.633Z,4.6
2023-05-17T22:06:11.724Z,4.6
2023-05-17T22:09:11.716Z,4.6
2023-05-17T22:12:11.772Z,4.5
2023-05-17T22:15:11.656Z,4.5
2023-05-17T22:18:12.088Z,4.4
2023-05-17T22:21:11.709Z,4.4
2023-05-17T22:24:11.765Z,4.4
2023-05-17T22:27:11.715Z,4.4
2023-05-17T22:30:12.131Z,4.4
2023-05-17T22:33:12.116Z,4.2
2023-05-17T22:36:11.759Z,4.2
2023-05-17T22:39:11.615Z,4.1
2023-05-17T22:42:11.663Z,4
2023-05-17T22:45:11.859Z,3.9
2023-05-17T22:48:12.330Z,3.7
2023-05-17T22:51:11.804Z,3.6
2023-05-17T22:54:11.688Z,3.5
2023-05-17T22:57:11.739Z,3.4
2023-05-17T23:00:11.937Z,3.2
2023-05-17T23:03:12.151Z,3.1
2023-05-17T23:06:11.936Z,3
2023-05-17T23:09:11.642Z,3
2023-05-17T23:12:11.768Z,2.9
2023-05-17T23:15:11.859Z,2.7
2023-05-17T23:18:12.532Z,2.7
2023-05-17T23:21:11.725Z,2.6
2023-05-17T23:24:11.725Z,2.6
2023-05-17T23:27:11.745Z,2.5
2023-05-17T23:30:11.743Z,2.5
2023-05-17T23:33:11.977Z,2.5
2023-05-17T23:36:11.749Z,2.4
2023-05-17T23:39:11.802Z,2.4
2023-05-17T23:42:11.664Z,2.2
2023-05-17T23:45:11.813Z,2.2
2023-05-17T23:48:12.384Z,2.1
2023-05-17T23:51:11.785Z,2.1
2023-05-17T23:54:11.688Z,2
2023-05-17T23:57:11.786Z,2
